createdAt,value
2019-05-13T00:01:43.492Z,3.10
2019-05-13T00:04:14.149Z,3.80
2019-05-13T00:06:51.335Z,3.13
2019-05-13T00:09:14.160Z,3.40
2019-05-13T00:11:43.767Z,2.60
2019-05-13T00:14:13.422Z,2.90
2019-05-13T00:16:44.694Z,3.10
2019-05-13T00:19:14.281Z,2.80
2019-05-13T00:21:44.354Z,2.80
2019-05-13T00:24:13.813Z,2.63
2019-05-13T00:26:44.408Z,2.77
2019-05-13T00:29:14.159Z,3.30
2019-05-13T00:31:43.813Z,3.03
2019-05-13T00:34:14.425Z,2.50
2019-05-13T00:36:44.559Z,2.67
2019-05-13T00:39:15.128Z,2.83
2019-05-13T00:41:44.244Z,2.43
2019-05-13T00:44:14.274Z,2.50
2019-05-13T00:46:44.143Z,3.70
2019-05-13T00:49:13.414Z,2.60
2019-05-13T00:51:44.216Z,3.93
2019-05-13T00:54:13.291Z,2.90
2019-05-13T00:56:43.598Z,2.67
2019-05-13T00:59:14.114Z,3.67
2019-05-13T01:01:44.044Z,3.03
2019-05-13T01:04:14.315Z,3.77
2019-05-13T01:06:43.560Z,5.80
2019-05-13T01:09:14.288Z,3.07
2019-05-13T01:11:43.784Z,3.37
2019-05-13T01:14:14.381Z,3.77
2019-05-13T01:16:44.384Z,2.90
2019-05-13T01:19:14.410Z,2.87
2019-05-13T01:21:43.461Z,3.23
2019-05-13T01:24:14.204Z,3.23
2019-05-13T01:26:43.797Z,3.10
2019-05-13T01:29:13.495Z,2.60
2019-05-13T01:31:43.487Z,2.87
2019-05-13T01:34:14.081Z,3.67
2019-05-13T01:36:44.474Z,3.33
2019-05-13T01:39:13.906Z,3.30
2019-05-13T01:41:43.833Z,2.47
2019-05-13T01:44:13.966Z,3.33
2019-05-13T01:46:43.730Z,3.77
2019-05-13T01:49:13.669Z,2.90
2019-05-13T01:51:43.999Z,3.23
2019-05-13T01:54:14.265Z,3.33
2019-05-13T01:56:44.166Z,3.13
2019-05-13T01:59:15.029Z,3.93
2019-05-13T02:01:45.846Z,3.37
2019-05-13T02:04:14.386Z,3.07
2019-05-13T02:06:44.265Z,4.33
2019-05-13T02:09:14.194Z,3.37
2019-05-13T02:11:44.577Z,3.27
2019-05-13T02:14:13.344Z,4.40
2019-05-13T02:16:44.373Z,3.60
2019-05-13T02:19:14.264Z,2.93
2019-05-13T02:21:43.880Z,3.80
2019-05-13T02:24:14.430Z,4.87
2019-05-13T02:26:43.728Z,3.27
2019-05-13T02:29:14.318Z,3.90
2019-05-13T02:31:51.105Z,3.33
2019-05-13T02:34:14.532Z,3.20
2019-05-13T02:36:44.041Z,3.50
2019-05-13T02:39:13.079Z,4.53
2019-05-13T02:41:43.153Z,4.23
2019-05-13T02:44:12.374Z,3.37
2019-05-13T02:46:43.991Z,3.60
2019-05-13T02:49:12.164Z,3.77
2019-05-13T02:51:42.949Z,3.90
2019-05-13T02:54:12.409Z,3.43
2019-05-13T02:56:42.228Z,4.20
2019-05-13T02:59:13.109Z,3.80
2019-05-13T03:01:43.232Z,3.30
2019-05-13T03:04:13.129Z,3.70
2019-05-13T03:06:43.463Z,3.07
2019-05-13T03:09:12.826Z,3.77
2019-05-13T03:11:42.317Z,3.20
2019-05-13T03:14:12.880Z,3.80
2019-05-13T03:16:51.771Z,3.10
2019-05-13T03:19:22.192Z,3.30
2019-05-13T03:21:52.121Z,3.87
2019-05-13T03:24:22.924Z,3.67
2019-05-13T03:26:52.953Z,3.67
2019-05-13T03:29:22.192Z,3.83
2019-05-13T03:31:54.889Z,3.93
2019-05-13T03:34:25.364Z,3.57
2019-05-13T03:36:56.813Z,4.08
2019-05-13T03:39:22.923Z,3.37
2019-05-13T03:41:53.754Z,3.67
2019-05-13T03:44:24.021Z,4.00
2019-05-13T03:46:54.494Z,3.93
2019-05-13T03:49:26.096Z,4.40
2019-05-13T03:51:54.837Z,3.77
2019-05-13T03:54:23.418Z,3.60
2019-05-13T03:56:53.172Z,3.87
2019-05-13T03:59:22.620Z,3.77
2019-05-13T04:01:52.733Z,3.90
2019-05-13T04:04:23.299Z,3.30
2019-05-13T04:06:53.072Z,4.20
2019-05-13T04:09:30.080Z,4.20
2019-05-13T04:11:52.689Z,4.47
2019-05-13T04:14:22.877Z,3.57
2019-05-13T04:16:53.213Z,3.83
2019-05-13T04:19:23.145Z,4.10
2019-05-13T04:21:52.998Z,3.30
2019-05-13T04:24:22.874Z,3.70
2019-05-13T04:26:53.585Z,3.53
2019-05-13T04:29:24.338Z,4.47
2019-05-13T04:31:53.313Z,3.90
2019-05-13T04:34:22.923Z,3.53
2019-05-13T04:36:52.062Z,3.80
2019-05-13T04:39:38.891Z,3.77
2019-05-13T04:41:52.931Z,4.20
2019-05-13T04:44:23.984Z,4.93
2019-05-13T04:46:52.331Z,4.10
2019-05-13T04:49:23.331Z,3.93
2019-05-13T04:51:52.359Z,3.43
2019-05-13T04:54:22.583Z,5.37
2019-05-13T04:56:52.513Z,4.50
2019-05-13T04:59:22.995Z,4.00
2019-05-13T05:02:42.783Z,6.20
2019-05-13T05:05:18.570Z,4.70
2019-05-13T05:08:18.777Z,6.30
2019-05-13T05:11:04.635Z,6.33
2019-05-13T05:14:05.128Z,6.27
2019-05-13T05:16:57.868Z,4.77
2019-05-13T05:19:35.105Z,4.97
2019-05-13T05:22:23.342Z,4.33
2019-05-13T05:25:01.563Z,4.23
2019-05-13T05:27:51.439Z,4.60
2019-05-13T05:30:41.177Z,4.70
2019-05-13T05:33:31.929Z,3.90
2019-05-13T05:36:18.597Z,5.20
2019-05-13T05:39:01.870Z,3.77
2019-05-13T05:41:32.695Z,4.40
2019-05-13T05:44:02.878Z,4.30
2019-05-13T05:46:32.449Z,4.40
2019-05-13T05:49:04.167Z,4.50
2019-05-13T05:51:34.171Z,4.10
2019-05-13T05:54:03.835Z,4.40
2019-05-13T05:56:33.421Z,4.20
2019-05-13T05:59:03.314Z,4.20
2019-05-13T06:01:33.189Z,3.97
2019-05-13T06:04:02.267Z,4.07
2019-05-13T06:06:32.988Z,4.70
2019-05-13T06:09:01.915Z,3.77
2019-05-13T06:11:32.681Z,3.77
2019-05-13T06:14:02.311Z,3.80
2019-05-13T06:16:32.050Z,3.67
2019-05-13T06:19:01.416Z,3.77
2019-05-13T06:21:32.101Z,3.70
2019-05-13T06:24:02.733Z,3.33
2019-05-13T06:26:31.460Z,3.50
2019-05-13T06:29:02.504Z,3.57
2019-05-13T06:31:32.254Z,3.60
2019-05-13T06:34:02.088Z,2.90
2019-05-13T06:36:31.625Z,2.43
2019-05-13T06:39:02.241Z,3.63
2019-05-13T06:41:32.354Z,3.50
2019-05-13T06:44:02.554Z,3.00
2019-05-13T06:46:32.307Z,3.10
2019-05-13T06:49:02.911Z,3.50
2019-05-13T06:51:31.479Z,3.57
2019-05-13T06:54:02.396Z,3.30
2019-05-13T06:56:32.242Z,3.23
2019-05-13T06:59:01.566Z,2.93
2019-05-13T07:01:32.299Z,3.17
2019-05-13T07:04:02.354Z,3.43
2019-05-13T07:06:32.301Z,2.60
2019-05-13T07:09:01.675Z,3.10
2019-05-13T07:11:31.403Z,2.77
2019-05-13T07:14:02.450Z,3.90
2019-05-13T07:16:31.723Z,2.60
2019-05-13T07:19:02.484Z,2.80
2019-05-13T07:21:32.303Z,2.97
2019-05-13T07:24:02.224Z,3.20
2019-05-13T07:26:31.585Z,3.00
2019-05-13T07:29:03.303Z,3.13
2019-05-13T07:31:32.412Z,3.30
2019-05-13T07:34:02.321Z,3.17
2019-05-13T07:36:31.614Z,2.87
2019-05-13T07:39:01.632Z,3.07
2019-05-13T07:41:36.429Z,3.67
2019-05-13T07:44:02.538Z,2.97
2019-05-13T07:46:32.235Z,2.80
2019-05-13T07:49:02.160Z,2.67
2019-05-13T07:51:31.631Z,2.87
2019-05-13T07:54:02.215Z,2.73
2019-05-13T07:56:32.420Z,3.10
2019-05-13T07:59:01.796Z,3.10
2019-05-13T08:01:32.677Z,2.80
2019-05-13T08:04:02.307Z,2.60
2019-05-13T08:06:32.300Z,2.60
2019-05-13T08:09:01.676Z,2.50
2019-05-13T08:11:36.900Z,3.07
2019-05-13T08:14:01.745Z,3.30
2019-05-13T08:16:32.289Z,2.97
2019-05-13T08:19:01.841Z,3.40
2019-05-13T08:21:32.263Z,3.47
2019-05-13T08:24:02.836Z,2.60
2019-05-13T08:26:32.394Z,2.40
2019-05-13T08:29:05.368Z,3.70
2019-05-13T08:31:32.274Z,3.60
2019-05-13T08:34:02.459Z,2.63
2019-05-13T08:36:32.735Z,2.40
2019-05-13T08:39:02.620Z,2.60
2019-05-13T08:41:32.301Z,2.73
2019-05-13T08:44:01.692Z,2.83
2019-05-13T08:46:32.261Z,3.23
2019-05-13T08:49:03.713Z,2.70
2019-05-13T08:51:34.688Z,3.57
2019-05-13T08:54:02.417Z,2.30
2019-05-13T08:56:32.594Z,2.77
2019-05-13T08:59:01.327Z,2.53
2019-05-13T09:01:31.914Z,3.10
2019-05-13T09:04:02.221Z,2.10
2019-05-13T09:06:31.243Z,2.43
2019-05-13T09:09:01.759Z,2.50
2019-05-13T09:11:31.531Z,2.40
2019-05-13T09:14:02.296Z,2.50
2019-05-13T09:16:32.001Z,2.37
2019-05-13T09:19:03.733Z,2.60
2019-05-13T09:21:32.327Z,2.23
2019-05-13T09:24:02.165Z,2.50
2019-05-13T09:26:31.652Z,2.50
2019-05-13T09:29:01.462Z,2.80
2019-05-13T09:31:32.373Z,2.50
2019-05-13T09:34:02.664Z,2.43
2019-05-13T09:36:32.420Z,2.30
2019-05-13T09:39:02.041Z,2.77
2019-05-13T09:41:35.385Z,2.30
2019-05-13T09:44:02.024Z,2.10
2019-05-13T09:46:31.871Z,2.37
2019-05-13T09:49:12.820Z,2.40
2019-05-13T09:51:32.338Z,2.40
2019-05-13T09:54:01.415Z,2.40
2019-05-13T09:56:31.919Z,2.47
2019-05-13T09:59:01.799Z,2.17
2019-05-13T10:01:34.470Z,2.37
2019-05-13T10:04:03.386Z,2.60
2019-05-13T10:06:32.748Z,2.30
2019-05-13T10:09:02.326Z,2.17
2019-05-13T10:11:31.056Z,2.40
2019-05-13T10:14:01.890Z,2.10
2019-05-13T10:16:31.298Z,2.37
2019-05-13T10:19:01.636Z,2.53
2019-05-13T10:21:32.699Z,2.20
2019-05-13T10:24:00.690Z,2.40
2019-05-13T10:26:31.959Z,2.03
2019-05-13T10:29:00.133Z,2.30
2019-05-13T10:31:31.246Z,2.33
2019-05-13T10:33:59.059Z,1.93
2019-05-13T10:36:27.604Z,1.97
2019-05-13T10:38:56.061Z,1.80
2019-05-13T10:41:24.903Z,2.20
2019-05-13T10:43:53.441Z,1.90
2019-05-13T10:46:22.286Z,2.00
2019-05-13T10:48:52.676Z,2.03
2019-05-13T10:51:22.372Z,2.00
2019-05-13T10:53:53.566Z,2.20
2019-05-13T10:56:21.628Z,2.27
2019-05-13T10:58:53.329Z,2.40
2019-05-13T11:01:22.546Z,1.90
2019-05-13T11:03:52.361Z,2.17
2019-05-13T11:06:21.965Z,2.20
2019-05-13T11:08:53.143Z,1.90
2019-05-13T11:11:21.878Z,2.60
2019-05-13T11:13:58.744Z,2.33
2019-05-13T11:16:22.524Z,1.90
2019-05-13T11:18:51.873Z,3.37
2019-05-13T11:21:22.203Z,2.00
2019-05-13T11:23:51.752Z,1.70
2019-05-13T11:26:21.976Z,2.07
2019-05-13T11:28:52.512Z,1.90
2019-05-13T11:31:22.410Z,2.13
2019-05-13T11:33:52.037Z,1.93
2019-05-13T11:36:23.306Z,1.80
2019-05-13T11:38:53.079Z,2.00
2019-05-13T11:41:22.848Z,1.93
2019-05-13T11:44:09.292Z,2.00
2019-05-13T11:46:22.533Z,3.03
2019-05-13T11:48:52.068Z,1.77
2019-05-13T11:51:24.054Z,1.80
2019-05-13T11:53:52.451Z,2.07
2019-05-13T11:56:23.012Z,2.00
2019-05-13T11:58:53.320Z,1.70
2019-05-13T12:01:23.162Z,2.00
2019-05-13T12:03:53.043Z,2.13
2019-05-13T12:06:23.207Z,2.17
2019-05-13T12:08:55.207Z,2.10
2019-05-13T12:11:22.557Z,2.40
2019-05-13T12:13:52.847Z,2.13
2019-05-13T12:16:22.779Z,2.00
2019-05-13T12:18:52.896Z,2.13
2019-05-13T12:21:21.673Z,1.80
2019-05-13T12:23:52.778Z,2.17
2019-05-13T12:26:23.457Z,1.90
2019-05-13T12:28:53.680Z,2.10
2019-05-13T12:31:22.633Z,2.30
2019-05-13T12:33:52.291Z,1.97
2019-05-13T12:36:23.465Z,2.67
2019-05-13T12:38:53.622Z,1.70
2019-05-13T12:41:23.112Z,2.43
2019-05-13T12:43:53.940Z,2.17
2019-05-13T12:46:24.640Z,2.00
2019-05-13T12:48:52.294Z,2.17
2019-05-13T12:51:32.763Z,2.07
2019-05-13T12:53:56.886Z,1.63
2019-05-13T12:56:33.388Z,2.27
2019-05-13T12:59:03.041Z,2.20
2019-05-13T13:01:32.465Z,2.10
2019-05-13T13:04:02.288Z,2.10
2019-05-13T13:06:39.638Z,2.20
2019-05-13T13:09:01.283Z,2.20
2019-05-13T13:11:32.299Z,1.80
2019-05-13T13:14:05.720Z,2.43
2019-05-13T13:16:53.831Z,1.90
2019-05-13T13:19:02.640Z,1.83
2019-05-13T13:21:34.286Z,2.10
2019-05-13T13:24:04.353Z,3.40
2019-05-13T13:26:33.521Z,2.40
2019-05-13T13:29:02.453Z,2.90
2019-05-13T13:31:33.709Z,2.40
2019-05-13T13:34:11.172Z,1.90
2019-05-13T13:36:33.554Z,1.80
2019-05-13T13:39:03.894Z,2.20
2019-05-13T13:41:32.951Z,3.07
2019-05-13T13:44:05.467Z,2.30
2019-05-13T13:49:03.668Z,2.10
2019-05-13T13:51:34.408Z,2.53
2019-05-13T13:54:02.299Z,2.10
2019-05-13T13:56:32.698Z,2.17
2019-05-13T13:59:04.480Z,2.10
2019-05-13T14:01:33.312Z,2.07
2019-05-13T14:04:03.697Z,2.10
2019-05-13T14:06:58.941Z,2.13
2019-05-13T14:07:25.316Z,2.20
2019-05-13T14:09:04.396Z,2.33
2019-05-13T14:11:33.148Z,2.20
2019-05-13T14:14:02.249Z,1.90
2019-05-13T14:16:34.890Z,2.67
2019-05-13T14:19:01.031Z,2.23
2019-05-13T14:21:30.158Z,2.13
2019-05-13T14:24:02.432Z,2.10
2019-05-13T14:26:32.423Z,2.13
2019-05-13T14:29:02.525Z,2.10
2019-05-13T14:31:32.392Z,2.23
2019-05-13T14:34:00.447Z,2.17
2019-05-13T14:36:28.929Z,2.10
2019-05-13T14:38:57.391Z,2.20
2019-05-13T14:41:25.928Z,2.47
2019-05-13T14:43:54.400Z,2.20
2019-05-13T14:46:35.393Z,2.10
2019-05-13T14:48:54.741Z,2.10
2019-05-13T14:51:23.318Z,2.40
2019-05-13T14:53:52.161Z,2.50
2019-05-13T14:56:22.155Z,2.30
2019-05-13T14:58:52.023Z,2.20
2019-05-13T15:01:22.745Z,2.30
2019-05-13T15:03:51.970Z,2.50
2019-05-13T15:06:22.086Z,2.57
2019-05-13T15:08:53.759Z,2.40
2019-05-13T15:11:22.305Z,2.07
2019-05-13T15:13:51.832Z,4.07
2019-05-13T15:16:22.330Z,2.23
2019-05-13T15:18:54.288Z,3.40
2019-05-13T15:21:22.927Z,2.27
2019-05-13T15:23:51.920Z,2.90
2019-05-13T15:26:22.301Z,2.30
2019-05-13T15:28:51.855Z,2.43
2019-05-13T15:31:22.072Z,2.67
2019-05-13T15:33:52.434Z,2.80
2019-05-13T15:36:22.551Z,2.77
2019-05-13T15:38:52.050Z,2.20
2019-05-13T15:41:20.759Z,2.30
2019-05-13T15:43:51.289Z,2.10
2019-05-13T15:46:21.994Z,2.30
2019-05-13T15:48:51.347Z,2.30
2019-05-13T15:51:22.064Z,2.60
2019-05-13T15:53:51.722Z,2.20
2019-05-13T15:56:22.432Z,2.30
2019-05-13T15:58:55.488Z,2.40
2019-05-13T16:01:28.701Z,2.10
2019-05-13T16:03:57.293Z,2.50
2019-05-13T16:06:28.521Z,2.27
2019-05-13T16:08:57.197Z,2.27
2019-05-13T16:11:26.260Z,2.07
2019-05-13T16:13:54.973Z,1.93
2019-05-13T16:16:23.854Z,2.07
2019-05-13T16:18:52.477Z,2.30
2019-05-13T16:21:21.118Z,2.10
2019-05-13T16:23:51.485Z,1.97
2019-05-13T16:26:22.484Z,2.20
2019-05-13T16:28:52.302Z,1.70
2019-05-13T16:31:20.782Z,2.07
2019-05-13T16:33:49.329Z,2.10
2019-05-13T16:36:22.446Z,2.33
2019-05-13T16:38:56.460Z,2.40
2019-05-13T16:41:28.521Z,2.77
2019-05-13T16:43:57.071Z,2.73
2019-05-13T16:46:25.727Z,2.50
2019-05-13T16:48:57.300Z,2.40
2019-05-13T16:51:26.096Z,1.80
2019-05-13T16:53:54.796Z,1.80
2019-05-13T16:56:33.589Z,2.17
2019-05-13T16:59:12.532Z,2.20
2019-05-13T17:01:44.166Z,2.00
2019-05-13T17:04:13.695Z,2.30
2019-05-13T17:06:42.502Z,3.70
2019-05-13T17:09:12.007Z,2.53
2019-05-13T17:11:52.871Z,2.50
2019-05-13T17:14:32.196Z,1.90
2019-05-13T17:17:05.496Z,2.00
2019-05-13T17:19:36.675Z,2.20
2019-05-13T17:22:05.641Z,2.03
2019-05-13T17:24:34.381Z,2.17
2019-05-13T17:27:03.143Z,2.10
2019-05-13T17:29:31.897Z,2.00
2019-05-13T17:32:02.717Z,2.10
2019-05-13T17:34:37.874Z,2.07
2019-05-13T17:37:06.722Z,2.03
2019-05-13T17:39:41.554Z,1.93
2019-05-13T17:42:08.566Z,2.00
2019-05-13T17:44:38.973Z,2.23
2019-05-13T17:47:07.611Z,2.00
2019-05-13T17:49:41.729Z,2.10
2019-05-13T17:52:11.528Z,2.00
2019-05-13T17:54:43.194Z,2.30
2019-05-13T17:57:12.394Z,1.80
2019-05-13T17:59:45.941Z,1.93
2019-05-13T18:02:17.282Z,2.13
2019-05-13T18:04:47.370Z,2.70
2019-05-13T18:07:26.370Z,2.00
2019-05-13T18:09:57.503Z,2.17
2019-05-13T18:12:32.442Z,2.10
2019-05-13T18:15:02.437Z,1.90
2019-05-13T18:17:31.308Z,1.90
2019-05-13T18:20:02.093Z,2.70
2019-05-13T18:22:31.672Z,2.30
2019-05-13T18:25:07.012Z,2.70
2019-05-13T18:27:45.216Z,2.57
2019-05-13T18:30:25.958Z,1.97
2019-05-13T18:32:54.853Z,2.20
2019-05-13T18:35:32.616Z,2.07
2019-05-13T18:41:27.791Z,2.13
2019-05-13T18:43:41.395Z,2.23
2019-05-13T18:46:21.554Z,2.17
2019-05-13T18:49:21.047Z,3.50
2019-05-13T18:52:01.873Z,2.20
2019-05-13T19:30:51.539Z,2.03
2019-05-13T19:36:23.136Z,2.20
2019-05-13T19:39:34.888Z,2.27
2019-05-13T19:54:45.852Z,2.10
2019-05-13T19:57:28.906Z,2.50
2019-05-13T19:58:46.494Z,2.47
2019-05-13T20:07:12.646Z,2.50
2019-05-13T20:16:11.775Z,2.20
